Time;durP1;ratioP1;P1;durP2;ratioP2;P2;SDS_P1;SDS_P2;PMS_P1;PMS_P2;Temp;Humidity;BMP_temperature;BMP_pressure;BME280_temperature;BME280_humidity;BME280_pressure;Samples;Min_cycle;Max_cycle;Signal;HPM_P1;HPM_P2
2022/01/02 00:01:02;;;;;;;18.38;9.70;;;;;;;10.82;93.66;102026.16;5059508;28;20652;-51
2022/01/02 00:03:33;;;;;;;18.92;8.60;;;;;;;10.79;93.40;102008.66;5053953;28;20032;-53
2022/01/02 00:06:01;;;;;;;19.38;8.60;;;;;;;10.78;93.38;102000.84;5056171;28;20041;-54
2022/01/02 00:08:30;;;;;;;20.15;8.82;;;;;;;10.77;93.34;101991.13;5054833;28;20376;-51
2022/01/02 00:10:58;;;;;;;19.55;8.85;;;;;;;10.74;93.34;101991.56;5039812;28;20373;-53
2022/01/02 00:13:29;;;;;;;17.10;8.20;;;;;;;10.75;93.27;101982.47;5054280;28;20276;-51
2022/01/02 00:16:06;;;;;;;17.23;8.00;;;;;;;10.73;93.21;101971.97;5050304;28;20376;-53
2022/01/02 00:18:35;;;;;;;17.50;8.70;;;;;;;10.71;93.12;101963.34;5051612;28;20032;-53
2022/01/02 00:21:06;;;;;;;14.50;7.20;;;;;;;10.70;92.81;101960.88;5049339;28;20067;-51
2022/01/02 00:23:41;;;;;;;20.33;7.43;;;;;;;10.65;93.01;101960.72;5051665;28;20029;-50
2022/01/02 00:26:15;;;;;;;13.80;7.53;;;;;;;10.59;93.14;101965.09;5053210;28;20264;-53
2022/01/02 00:28:42;;;;;;;14.75;7.35;;;;;;;10.63;93.07;101965.50;5056377;28;20388;-52
2022/01/02 00:31:09;;;;;;;17.05;7.57;;;;;;;10.67;92.99;101967.50;5055775;28;20385;-54
2022/01/02 00:33:36;;;;;;;16.05;7.65;;;;;;;10.70;92.71;101974.28;5054319;28;20086;-52
2022/01/02 00:36:04;;;;;;;14.25;7.65;;;;;;;10.72;92.51;101966.84;5052301;28;20063;-51
2022/01/02 00:38:30;;;;;;;15.95;7.32;;;;;;;10.74;91.97;101970.13;5057547;28;20312;-51
2022/01/02 00:40:58;;;;;;;13.18;6.97;;;;;;;10.74;92.10;101946.81;5048802;28;20040;-53
2022/01/02 00:43:45;;;;;;;11.32;6.53;;;;;;;10.69;91.70;101946.66;5051510;28;20115;-53
2022/01/02 00:46:13;;;;;;;18.27;7.28;;;;;;;10.69;91.61;101959.25;5053300;28;20032;-54
2022/01/02 00:48:44;;;;;;;13.60;6.75;;;;;;;10.70;91.87;101958.19;5054585;28;20024;-54
2022/01/02 00:51:33;;;;;;;13.07;7.00;;;;;;;10.66;91.82;101949.78;5035923;28;20500;-51
2022/01/02 00:54:00;;;;;;;14.43;6.18;;;;;;;10.70;91.63;101934.91;5052779;28;20021;-54
2022/01/02 00:56:28;;;;;;;13.32;6.93;;;;;;;10.70;91.46;101924.19;5039448;28;20032;-53
2022/01/02 00:59:00;;;;;;;15.35;7.43;;;;;;;10.68;91.03;101915.53;5050290;28;20102;-53
2022/01/02 01:01:33;;;;;;;14.35;5.88;;;;;;;10.67;91.53;101908.53;5050886;28;20032;-53
2022/01/02 01:04:02;;;;;;;14.82;6.07;;;;;;;10.65;90.84;101891.03;5051934;28;20182;-52
2022/01/02 01:06:31;;;;;;;12.45;5.82;;;;;;;10.59;90.79;101882.84;5040651;28;20040;-51
2022/01/02 01:09:01;;;;;;;13.65;6.50;;;;;;;10.59;90.69;101882.00;5052037;28;20036;-51
2022/01/02 01:11:28;;;;;;;12.27;4.88;;;;;;;10.57;90.58;101892.13;5051756;28;20031;-53
2022/01/02 01:13:55;;;;;;;11.70;5.60;;;;;;;10.56;90.40;101880.59;5051483;28;20028;-51
2022/01/02 01:16:22;;;;;;;12.40;5.30;;;;;;;10.54;90.57;101893.38;5055318;28;20024;-54
2022/01/02 01:18:48;;;;;;;9.82;4.85;;;;;;;10.53;90.55;101897.09;5052273;28;20032;-51
2022/01/02 01:21:15;;;;;;;12.60;4.70;;;;;;;10.55;90.35;101889.66;5052099;28;20056;-51
2022/01/02 01:23:41;;;;;;;12.23;5.32;;;;;;;10.48;90.15;101878.19;5053247;28;20425;-53
2022/01/02 01:26:09;;;;;;;8.32;4.65;;;;;;;10.42;90.12;101880.94;5048040;28;20313;-52
2022/01/02 01:28:35;;;;;;;11.18;5.10;;;;;;;10.35;90.56;101883.66;5053310;28;20120;-53
2022/01/02 01:31:01;;;;;;;9.52;5.03;;;;;;;10.34;90.59;101874.00;5050120;28;20116;-51
2022/01/02 01:33:27;;;;;;;9.88;5.05;;;;;;;10.35;90.41;101872.13;5053789;28;20036;-52
2022/01/02 01:35:52;;;;;;;11.85;5.22;;;;;;;10.20;90.41;101856.34;5048987;28;20098;-52
2022/01/02 01:38:18;;;;;;;10.38;4.90;;;;;;;10.08;90.80;101855.44;5053280;28;20391;-52
2022/01/02 01:40:57;;;;;;;9.75;5.22;;;;;;;10.00;90.65;101841.25;5053840;28;20028;-55
2022/01/02 01:43:37;;;;;;;12.27;5.15;;;;;;;9.97;90.76;101830.97;5049684;28;20032;-51
2022/01/02 01:46:04;;;;;;;7.07;4.55;;;;;;;9.96;91.04;101820.50;5053322;28;20020;-51
2022/01/02 01:48:29;;;;;;;10.50;4.85;;;;;;;9.99;90.78;101822.72;5053716;28;20132;-51
2022/01/02 01:50:55;;;;;;;9.45;4.68;;;;;;;9.98;90.59;101810.38;5054055;28;20253;-51
2022/01/02 01:53:20;;;;;;;7.95;4.32;;;;;;;9.99;90.28;101802.13;5052110;28;20522;-51
2022/01/02 01:55:46;;;;;;;12.02;5.20;;;;;;;9.99;90.49;101801.31;5055859;28;20546;-53
2022/01/02 01:58:12;;;;;;;7.15;3.97;;;;;;;9.97;90.74;101798.84;5056763;28;20575;-52
2022/01/02 02:00:38;;;;;;;7.25;4.18;;;;;;;10.00;90.24;101793.06;5052661;28;20496;-52
2022/01/02 02:03:04;;;;;;;8.73;4.35;;;;;;;9.99;90.19;101777.22;5053414;28;20029;-51
2022/01/02 02:05:29;;;;;;;7.15;3.92;;;;;;;9.97;89.80;101795.38;5056839;28;20106;-54
2022/01/02 02:07:55;;;;;;;9.10;4.35;;;;;;;9.93;90.03;101784.28;5054136;28;20031;-51
2022/01/02 02:10:35;;;;;;;7.68;4.05;;;;;;;9.90;89.94;101773.19;5044243;28;20060;-51
2022/01/02 02:13:03;;;;;;;6.57;3.60;;;;;;;9.91;89.50;101785.53;5051729;28;20025;-51
2022/01/02 02:15:29;;;;;;;14.82;4.57;;;;;;;9.88;89.62;101802.03;5053893;28;20029;-51
2022/01/02 02:17:54;;;;;;;6.57;3.83;;;;;;;9.89;89.34;101799.13;5053354;28;20265;-51
2022/01/02 02:20:27;;;;;;;11.25;4.07;;;;;;;9.89;89.49;101792.97;5057142;28;20037;-51
2022/01/02 02:22:55;;;;;;;6.95;3.72;;;;;;;9.88;89.24;101797.50;5055836;28;20147;-52
2022/01/02 02:25:26;;;;;;;10.07;3.88;;;;;;;9.88;89.35;101802.03;5056111;28;20028;-51
2022/01/02 02:27:54;;;;;;;8.60;4.28;;;;;;;9.88;89.18;101788.66;5042401;28;20279;-52
2022/01/02 02:30:21;;;;;;;6.50;3.97;;;;;;;9.83;88.63;101780.44;5053451;28;20036;-53
2022/01/02 02:32:46;;;;;;;7.43;4.07;;;;;;;9.66;88.81;101761.41;5039832;28;20429;-54
2022/01/02 02:35:13;;;;;;;11.05;5.05;;;;;;;9.63;89.15;101740.44;5055865;28;20028;-54
2022/01/02 02:37:44;;;;;;;9.13;3.90;;;;;;;9.61;89.25;101737.16;5054612;28;20119;-54
2022/01/02 02:40:11;;;;;;;7.50;3.83;;;;;;;9.56;89.00;101750.38;5053544;28;20636;-55
2022/01/02 02:42:52;;;;;;;7.70;4.22;;;;;;;9.59;89.26;101733.91;5043031;28;20024;-53
2022/01/02 02:51:08;;;;;;;9.18;4.13;;;;;;;9.52;89.39;101703.72;5052363;28;20035;-55
2022/01/02 02:53:36;;;;;;;7.80;4.15;;;;;;;9.55;89.33;101700.59;5061349;28;20021;-54
2022/01/02 02:56:03;;;;;;;8.80;4.20;;;;;;;9.57;89.27;101695.84;5053686;28;20087;-51
2022/01/02 03:01:00;;;;;;;10.05;4.25;;;;;;;9.57;89.27;101693.16;5049442;28;20116;-52
2022/01/02 03:03:25;;;;;;;7.88;3.90;;;;;;;9.57;88.89;101699.34;5054858;28;20504;-51
2022/01/02 03:05:51;;;;;;;7.57;4.40;;;;;;;9.53;88.94;101713.38;5050163;28;20188;-53
2022/01/02 03:08:17;;;;;;;9.10;4.85;;;;;;;9.40;89.26;101730.31;5054140;28;20038;-52
2022/01/02 03:10:43;;;;;;;10.82;4.38;;;;;;;9.37;89.54;101725.41;5055300;28;20458;-52
2022/01/02 03:13:08;;;;;;;7.55;4.32;;;;;;;9.39;89.67;101726.00;5055247;28;20358;-51
2022/01/02 03:15:34;;;;;;;10.38;4.88;;;;;;;9.33;89.61;101735.69;5055305;28;20033;-52
2022/01/02 03:17:59;;;;;;;8.63;4.13;;;;;;;9.29;90.00;101729.16;5054194;28;20043;-52
2022/01/02 03:20:25;;;;;;;11.27;4.35;;;;;;;9.39;90.09;101718.00;5055399;28;20029;-51
2022/01/02 03:22:50;;;;;;;9.02;4.70;;;;;;;9.44;89.61;101703.97;5053064;28;20046;-51
2022/01/02 03:25:17;;;;;;;8.70;4.65;;;;;;;9.47;89.67;101703.53;5054662;28;20025;-52
2022/01/02 03:27:44;;;;;;;7.07;4.03;;;;;;;9.46;88.85;101694.69;5049157;28;20456;-53
2022/01/02 03:30:13;;;;;;;7.82;4.53;;;;;;;9.34;88.62;101683.88;5054795;28;20072;-52
2022/01/02 03:32:39;;;;;;;10.63;4.72;;;;;;;9.25;89.09;101687.84;5057438;28;20025;-51
2022/01/02 03:35:05;;;;;;;10.20;5.18;;;;;;;9.19;89.65;101675.34;5053221;28;20089;-51
2022/01/02 03:37:33;;;;;;;9.45;5.10;;;;;;;9.15;89.71;101658.06;5056110;28;20480;-51
2022/01/02 03:40:00;;;;;;;13.60;5.30;;;;;;;9.15;89.71;101666.09;5057441;28;20032;-50
2022/01/02 03:42:26;;;;;;;8.60;4.72;;;;;;;9.21;90.01;101656.41;5048819;28;20036;-51
2022/01/02 03:44:51;;;;;;;9.38;4.80;;;;;;;9.21;89.88;101646.53;5054665;28;20392;-52
2022/01/02 03:47:17;;;;;;;13.18;4.82;;;;;;;9.22;89.42;101642.81;5052107;28;20033;-51
2022/01/02 03:49:43;;;;;;;10.70;5.00;;;;;;;9.25;89.54;101653.06;5057593;28;20033;-52
2022/01/02 03:52:09;;;;;;;19.58;5.55;;;;;;;9.24;89.82;101656.78;5053930;28;20032;-51
2022/01/02 03:54:35;;;;;;;8.93;4.68;;;;;;;9.24;89.27;101654.09;5054840;28;20029;-52
2022/01/02 03:57:01;;;;;;;9.48;5.00;;;;;;;9.20;89.31;101650.25;5055041;28;20036;-54
2022/01/02 03:59:26;;;;;;;7.50;4.90;;;;;;;9.16;89.80;101653.56;5051880;28;20404;-54
2022/01/02 04:01:52;;;;;;;8.70;4.47;;;;;;;9.18;89.63;101646.97;5051495;28;20052;-51
2022/01/02 04:04:17;;;;;;;8.82;4.88;;;;;;;9.14;89.72;101629.69;5053431;28;20103;-51
2022/01/02 04:06:43;;;;;;;9.57;5.60;;;;;;;9.14;89.83;101612.84;5050701;28;20504;-51
2022/01/02 04:09:08;;;;;;;11.07;5.28;;;;;;;9.11;89.86;101598.06;5051231;28;20087;-51
2022/01/02 04:11:34;;;;;;;10.00;5.25;;;;;;;9.12;89.96;101597.00;5050280;28;20393;-51
2022/01/02 04:13:59;;;;;;;8.35;4.80;;;;;;;9.13;89.74;101600.50;5052173;28;20024;-51
2022/01/02 04:16:25;;;;;;;9.57;5.20;;;;;;;9.17;89.86;101607.91;5054096;28;20110;-55
2022/01/02 04:18:51;;;;;;;11.52;4.70;;;;;;;9.20;89.65;101601.28;5055842;28;20167;-53
2022/01/02 04:21:16;;;;;;;8.60;4.50;;;;;;;9.21;89.55;101600.25;5054516;28;20033;-53
2022/01/02 04:23:42;;;;;;;8.45;4.82;;;;;;;9.18;89.47;101598.84;5051327;28;20044;-53
2022/01/02 04:26:07;;;;;;;7.65;4.82;;;;;;;9.20;89.52;101595.94;5054597;28;20029;-54
2022/01/02 04:28:33;;;;;;;9.57;5.20;;;;;;;9.20;89.62;101588.75;5057253;28;20036;-54
2022/01/02 04:30:59;;;;;;;10.63;5.65;;;;;;;9.19;89.42;101576.41;5054229;28;20077;-52
2022/01/02 04:33:26;;;;;;;12.75;5.40;;;;;;;9.17;89.49;101572.31;5039833;28;20618;-51
2022/01/02 04:35:51;;;;;;;8.15;4.80;;;;;;;9.20;89.19;101574.56;5051343;28;20032;-54
2022/01/02 04:38:17;;;;;;;9.27;4.65;;;;;;;9.13;89.27;101563.91;5055899;28;20459;-54
2022/01/02 04:40:43;;;;;;;9.70;5.13;;;;;;;9.11;89.59;101575.84;5055867;28;20035;-51
2022/01/02 04:43:08;;;;;;;8.80;5.75;;;;;;;9.06;89.48;101587.19;5050175;28;20025;-54
2022/01/02 04:45:34;;;;;;;9.75;4.90;;;;;;;9.08;89.95;101574.44;5050938;28;20264;-51
2022/01/02 04:48:00;;;;;;;9.15;5.07;;;;;;;9.08;89.87;101583.28;5049929;28;20024;-53
2022/01/02 04:50:26;;;;;;;10.35;4.95;;;;;;;9.15;89.16;101585.88;5057530;28;20062;-54
2022/01/02 04:52:51;;;;;;;9.10;4.85;;;;;;;9.14;89.09;101580.75;5054265;28;20020;-52
2022/01/02 04:55:17;;;;;;;10.80;5.22;;;;;;;9.13;89.29;101589.81;5052868;28;20028;-52
2022/01/02 04:57:43;;;;;;;7.90;4.43;;;;;;;9.13;88.92;101579.94;5051125;28;20029;-53
2022/01/02 05:00:10;;;;;;;15.88;5.68;;;;;;;9.13;89.05;101584.47;5050917;28;20078;-53
2022/01/02 05:02:35;;;;;;;12.07;5.30;;;;;;;9.13;89.12;101573.78;5053496;28;20104;-54
2022/01/02 05:05:01;;;;;;;9.98;5.53;;;;;;;9.11;88.95;101579.34;5049289;28;20534;-54
2022/01/02 05:07:26;;;;;;;7.75;4.65;;;;;;;9.06;89.02;101574.66;5053225;28;20137;-51
2022/01/02 05:09:52;;;;;;;7.13;4.72;;;;;;;9.06;89.17;101565.81;5047876;28;20031;-52
2022/01/02 05:12:17;;;;;;;12.27;4.90;;;;;;;9.06;89.27;101568.50;5045262;28;20436;-54
2022/01/02 05:14:43;;;;;;;8.50;4.80;;;;;;;9.03;89.19;101553.72;5028901;28;20033;-54
2022/01/02 05:17:08;;;;;;;8.00;4.88;;;;;;;9.04;89.33;101565.22;5046339;28;20235;-51
2022/01/02 05:19:34;;;;;;;11.60;5.13;;;;;;;9.01;89.04;101563.00;5046581;28;20111;-50
2022/01/02 05:21:59;;;;;;;9.70;4.97;;;;;;;9.01;89.22;101554.97;5030801;28;20081;-51
2022/01/02 05:24:25;;;;;;;9.13;5.15;;;;;;;8.97;89.39;101551.88;5047039;28;20070;-51
2022/01/02 05:26:51;;;;;;;9.70;5.45;;;;;;;8.96;89.37;101550.25;5048039;28;20040;-53
2022/01/02 05:29:17;;;;;;;12.07;4.85;;;;;;;8.97;89.35;101545.72;5045253;28;20112;-54
2022/01/02 05:31:43;;;;;;;11.27;5.45;;;;;;;8.90;89.42;101539.63;5049542;28;20029;-53
2022/01/02 05:34:08;;;;;;;7.43;5.10;;;;;;;8.91;89.95;101533.25;5048421;28;20145;-54
2022/01/02 05:36:33;;;;;;;9.30;5.25;;;;;;;8.89;89.63;101529.97;5049377;28;20052;-51
2022/01/02 05:39:00;;;;;;;9.18;5.30;;;;;;;8.87;89.90;101521.34;5051842;28;20032;-54
2022/01/02 05:41:27;;;;;;;10.15;4.88;;;;;;;8.88;89.90;101520.31;5034244;28;20032;-51
2022/01/02 05:43:53;;;;;;;12.05;6.50;;;;;;;8.84;90.18;101527.13;5049567;28;20107;-53
2022/01/02 05:46:18;;;;;;;9.43;5.22;;;;;;;8.83;90.34;101522.84;5051482;28;20039;-53
2022/01/02 05:48:44;;;;;;;11.13;5.80;;;;;;;8.86;89.94;101525.06;5058767;28;20028;-51
2022/01/02 05:51:10;;;;;;;9.80;5.38;;;;;;;8.84;89.93;101521.78;5058822;28;20322;-53
2022/01/02 05:53:36;;;;;;;11.80;6.18;;;;;;;8.84;90.52;101511.09;5045430;28;20134;-54
2022/01/02 05:56:01;;;;;;;9.80;5.63;;;;;;;8.85;90.28;101499.38;5059810;28;20603;-51
2022/01/02 05:58:27;;;;;;;10.40;5.53;;;;;;;8.86;90.24;101506.34;5043348;28;20028;-52
2022/01/02 06:00:52;;;;;;;11.30;5.40;;;;;;;8.83;90.26;101504.13;5051299;28;20068;-55
2022/01/02 06:03:18;;;;;;;11.43;5.30;;;;;;;8.84;90.40;101495.06;5057637;28;20051;-51
2022/01/02 06:05:44;;;;;;;11.02;5.10;;;;;;;8.82;90.39;101481.94;5056794;28;20488;-54
2022/01/02 06:08:09;;;;;;;10.38;5.15;;;;;;;8.82;90.55;101481.13;5040989;28;20520;-55
2022/01/02 06:10:35;;;;;;;9.48;5.07;;;;;;;8.81;90.26;101477.63;5052126;28;20049;-52
2022/01/02 06:13:01;;;;;;;10.57;5.60;;;;;;;8.83;90.24;101480.06;5056813;28;20063;-52
2022/01/02 06:15:26;;;;;;;9.35;5.07;;;;;;;8.82;90.32;101478.44;5051151;28;20048;-53
2022/01/02 06:17:52;;;;;;;10.75;5.50;;;;;;;8.79;90.23;101485.84;5056116;28;20024;-54
2022/01/02 06:20:17;;;;;;;11.05;5.40;;;;;;;8.79;90.51;101482.34;5051292;28;20050;-51
2022/01/02 06:22:42;;;;;;;10.68;5.57;;;;;;;8.75;90.54;101473.94;5040013;28;20472;-52
2022/01/02 06:25:08;;;;;;;10.88;5.13;;;;;;;8.78;90.86;101478.03;5061743;28;20036;-54
2022/01/02 06:27:34;;;;;;;12.52;6.82;;;;;;;8.77;90.69;101471.06;5052637;28;20429;-54
2022/01/02 06:30:00;;;;;;;8.18;5.65;;;;;;;8.76;90.40;101470.25;5058208;28;20047;-53
2022/01/02 06:32:25;;;;;;;11.10;5.25;;;;;;;8.79;90.37;101467.13;5053454;28;20032;-51
2022/01/02 06:34:51;;;;;;;11.68;5.40;;;;;;;8.79;90.52;101455.63;5054156;28;20562;-53
2022/01/02 06:37:17;;;;;;;9.15;5.78;;;;;;;8.75;90.55;101455.25;5056455;28;20033;-51
2022/01/02 06:39:42;;;;;;;9.27;5.43;;;;;;;8.74;90.65;101453.63;5058475;28;20088;-53
2022/01/02 06:42:08;;;;;;;10.85;5.22;;;;;;;8.73;90.54;101449.31;5052479;28;20032;-54
2022/01/02 06:44:34;;;;;;;13.45;6.00;;;;;;;8.72;90.39;101458.38;5052008;28;20072;-52
2022/01/02 06:46:59;;;;;;;12.07;5.40;;;;;;;8.72;90.76;101450.34;5036155;28;20036;-51
2022/01/02 06:49:25;;;;;;;6.90;5.20;;;;;;;8.71;90.92;101443.38;5056531;28;20168;-51
2022/01/02 06:51:50;;;;;;;11.77;5.30;;;;;;;8.73;90.58;101438.63;5034757;28;20094;-54
2022/01/02 06:54:16;;;;;;;12.88;5.78;;;;;;;8.70;90.62;101439.06;5054688;28;20025;-51
2022/01/02 06:56:41;;;;;;;11.65;5.53;;;;;;;8.69;90.99;101428.59;5060964;28;20032;-52
2022/01/02 06:59:07;;;;;;;11.55;5.85;;;;;;;8.74;90.80;101420.75;5063121;28;20163;-51
2022/01/02 07:01:33;;;;;;;10.00;5.63;;;;;;;8.71;90.74;101418.50;5037787;28;20036;-52
2022/01/02 07:03:58;;;;;;;8.90;5.03;;;;;;;8.73;90.60;101416.44;5053855;28;20168;-51
2022/01/02 07:06:24;;;;;;;9.65;5.07;;;;;;;8.69;90.66;101413.38;5050718;28;20024;-51
2022/01/02 07:08:49;;;;;;;9.30;5.95;;;;;;;8.70;90.58;101409.69;5057128;28;20025;-52
2022/01/02 07:11:15;;;;;;;9.80;5.88;;;;;;;8.69;90.93;101407.22;5049547;28;20075;-50
2022/01/02 07:13:40;;;;;;;8.73;5.50;;;;;;;8.71;91.04;101422.00;5055139;28;20116;-53
2022/01/02 07:16:06;;;;;;;11.50;5.60;;;;;;;8.71;90.84;101418.50;5051688;28;20268;-54
2022/01/02 07:18:32;;;;;;;11.02;5.93;;;;;;;8.70;91.14;101422.22;5054093;28;20029;-52
2022/01/02 07:20:57;;;;;;;9.05;5.18;;;;;;;8.71;90.92;101422.00;5049621;28;20032;-50
2022/01/02 07:23:23;;;;;;;8.45;5.30;;;;;;;8.71;91.00;101416.66;5052177;28;20468;-51
2022/01/02 07:25:48;;;;;;;13.48;6.05;;;;;;;8.74;90.87;101426.91;5049358;28;20018;-51
2022/01/02 07:28:14;;;;;;;10.00;6.07;;;;;;;8.75;91.06;101414.34;5051324;28;20401;-51
2022/01/02 07:30:39;;;;;;;10.30;5.97;;;;;;;8.69;91.84;101391.19;5048427;28;20115;-50
2022/01/02 07:33:05;;;;;;;11.15;6.32;;;;;;;8.63;91.65;101419.63;5056026;28;20349;-50
2022/01/02 07:35:31;;;;;;;10.90;5.93;;;;;;;8.62;91.88;101409.16;5053456;28;20029;-50
2022/01/02 07:37:57;;;;;;;10.45;5.82;;;;;;;8.59;92.23;101399.69;5053267;28;20032;-50
2022/01/02 07:40:24;;;;;;;12.57;6.18;;;;;;;8.54;93.51;101364.00;5050876;28;20047;-50
2022/01/02 07:42:50;;;;;;;14.95;6.40;;;;;;;8.47;94.16;101356.06;5047716;28;20082;-51
2022/01/02 07:45:17;;;;;;;10.45;5.90;;;;;;;8.47;93.94;101377.44;5048711;28;20028;-51
2022/01/02 07:47:42;;;;;;;11.63;5.85;;;;;;;8.50;93.56;101365.50;5054387;28;20313;-50
2022/01/02 07:50:08;;;;;;;11.60;6.30;;;;;;;8.54;93.49;101364.81;5050373;28;20037;-51
2022/01/02 07:52:34;;;;;;;13.80;6.50;;;;;;;8.55;93.58;101376.31;5049305;28;20037;-53
2022/01/02 07:55:00;;;;;;;10.43;6.72;;;;;;;8.54;93.79;101375.50;5051300;28;20044;-52
2022/01/02 07:57:25;;;;;;;13.02;6.55;;;;;;;8.57;93.40;101353.69;5051465;28;20462;-51
2022/01/02 07:59:51;;;;;;;11.80;6.40;;;;;;;8.58;93.64;101354.50;5047621;28;20033;-53
2022/01/02 08:02:16;;;;;;;12.80;6.10;;;;;;;8.60;93.34;101352.44;5050162;28;20148;-51
2022/01/02 08:04:42;;;;;;;12.52;6.63;;;;;;;8.59;94.03;101354.28;5054017;28;20055;-51
2022/01/02 08:07:07;;;;;;;11.50;6.93;;;;;;;8.58;93.70;101368.69;5050345;28;20029;-53
2022/01/02 08:09:33;;;;;;;9.38;5.72;;;;;;;8.62;93.54;101375.25;5056061;28;20032;-53
2022/01/02 08:11:58;;;;;;;9.35;6.07;;;;;;;8.63;93.63;101376.06;5051416;28;20037;-52
2022/01/02 08:14:24;;;;;;;9.02;6.25;;;;;;;8.64;93.76;101378.50;5045297;28;20504;-53
2022/01/02 08:16:49;;;;;;;12.75;6.43;;;;;;;8.66;93.76;101360.41;5050651;28;20045;-53
2022/01/02 08:19:15;;;;;;;11.90;6.75;;;;;;;8.68;93.83;101336.97;5055954;28;20055;-51
2022/01/02 08:21:40;;;;;;;14.35;7.95;;;;;;;8.69;93.94;101324.41;5049819;28;20059;-51
2022/01/02 08:24:06;;;;;;;9.35;5.97;;;;;;;8.67;94.00;101324.63;5050150;28;20058;-53
2022/01/02 08:26:32;;;;;;;10.25;6.00;;;;;;;8.71;93.91;101314.31;5053484;28;20066;-53
2022/01/02 08:29:01;;;;;;;12.63;6.20;;;;;;;8.73;93.64;101318.41;5053475;28;20317;-50
2022/01/02 08:31:27;;;;;;;13.93;6.60;;;;;;;8.76;93.48;101327.81;5050040;28;20028;-51
2022/01/02 08:33:54;;;;;;;9.88;6.32;;;;;;;8.79;93.56;101328.19;5052402;28;20468;-52
2022/01/02 08:36:19;;;;;;;13.73;6.85;;;;;;;8.82;93.60;101337.63;5055028;28;20060;-53
2022/01/02 08:38:47;;;;;;;9.07;6.15;;;;;;;8.83;93.60;101325.91;5051842;28;20064;-53
2022/01/02 08:41:13;;;;;;;13.15;6.18;;;;;;;8.87;93.49;101329.78;5050757;28;20111;-52
2022/01/02 08:43:39;;;;;;;12.00;6.00;;;;;;;8.92;93.69;101331.75;5044883;28;20603;-52
2022/01/02 08:46:04;;;;;;;13.45;6.32;;;;;;;8.97;93.14;101322.03;5051391;28;20115;-55
2022/01/02 08:48:30;;;;;;;10.90;6.43;;;;;;;8.97;93.60;101318.53;5055946;28;20083;-54
2022/01/02 08:50:55;;;;;;;13.45;6.35;;;;;;;9.01;93.56;101328.59;5056472;28;21046;-56
2022/01/02 08:53:21;;;;;;;12.52;6.40;;;;;;;9.05;93.29;101318.25;5048079;28;20401;-54
2022/01/02 08:55:46;;;;;;;8.93;5.90;;;;;;;9.07;93.20;101325.00;5053061;28;20028;-53
2022/01/02 08:58:12;;;;;;;10.60;6.38;;;;;;;9.10;93.50;101305.03;5045551;28;20037;-53
2022/01/02 09:00:37;;;;;;;13.63;6.10;;;;;;;9.13;93.38;101301.91;5050273;28;20032;-57
2022/01/02 09:03:03;;;;;;;10.10;5.93;;;;;;;9.14;93.50;101308.88;5055642;28;20060;-56
2022/01/02 09:05:29;;;;;;;12.02;6.55;;;;;;;9.15;93.38;101302.50;5058732;28;21057;-53
2022/01/02 09:07:55;;;;;;;11.68;6.22;;;;;;;9.15;93.20;101299.81;5058953;28;20037;-53
2022/01/02 09:10:21;;;;;;;11.00;5.85;;;;;;;9.16;93.43;101282.75;5058582;28;20385;-56
2022/01/02 09:12:48;;;;;;;12.32;5.97;;;;;;;9.17;93.46;101273.69;5059490;28;20339;-52
2022/01/02 09:15:13;;;;;;;11.00;6.22;;;;;;;9.15;93.47;101267.72;5061415;28;20041;-53
2022/01/02 09:17:39;;;;;;;11.32;6.00;;;;;;;9.15;93.48;101259.72;5059037;28;20060;-55
2022/01/02 09:20:07;;;;;;;10.68;6.35;;;;;;;9.13;93.66;101264.47;5058633;28;20039;-52
2022/01/02 09:22:33;;;;;;;13.57;6.28;;;;;;;9.15;94.12;101266.91;5067961;28;20027;-52
2022/01/02 09:24:58;;;;;;;9.65;5.72;;;;;;;9.20;94.23;101241.16;5057793;28;20026;-51
2022/01/02 09:27:24;;;;;;;9.50;5.45;;;;;;;9.23;94.01;101245.22;5053766;28;20021;-53
2022/01/02 09:29:49;;;;;;;10.93;5.25;;;;;;;9.23;94.35;101256.75;5056425;28;20433;-52
2022/01/02 09:32:15;;;;;;;10.60;5.20;;;;;;;9.24;94.44;101250.34;5056415;28;20041;-54
2022/01/02 09:34:41;;;;;;;10.00;4.85;;;;;;;9.22;95.41;101244.41;5056000;28;20017;-53
2022/01/02 09:37:07;;;;;;;10.15;5.13;;;;;;;9.29;95.57;101255.00;5060161;28;20410;-55
2022/01/02 09:39:34;;;;;;;9.38;4.55;;;;;;;9.37;94.32;101244.00;5057826;28;20072;-52
2022/01/02 09:42:00;;;;;;;9.25;4.78;;;;;;;9.42;94.73;101251.34;5058234;28;20271;-56
2022/01/02 09:44:26;;;;;;;8.27;4.43;;;;;;;9.48;94.09;101247.75;5051627;28;20195;-53
2022/01/02 09:46:53;;;;;;;8.77;4.72;;;;;;;9.45;94.64;101237.50;5066113;28;20472;-54
2022/01/02 09:49:21;;;;;;;11.25;4.90;;;;;;;9.53;94.18;101229.16;5062255;28;20458;-54
2022/01/02 09:51:47;;;;;;;8.25;4.90;;;;;;;9.57;94.64;101230.34;5061021;28;20107;-52
2022/01/02 09:54:12;;;;;;;7.55;4.15;;;;;;;9.62;94.41;101227.78;5060486;28;20123;-52
2022/01/02 09:56:38;;;;;;;8.63;4.38;;;;;;;9.68;93.65;101222.31;5060482;28;20504;-52
2022/01/02 09:59:04;;;;;;;9.30;5.25;;;;;;;9.73;93.62;101220.84;5060647;28;20054;-51
2022/01/02 10:01:32;;;;;;;11.02;4.90;;;;;;;9.74;94.53;101215.25;5063000;28;20032;-52
2022/01/02 10:03:58;;;;;;;7.65;4.50;;;;;;;9.80;94.09;101214.31;5060028;28;20050;-55
2022/01/02 10:06:51;;;;;;;7.82;4.90;;;;;;;9.79;94.07;101204.66;5059643;28;20039;-53
2022/01/02 10:09:38;;;;;;;12.88;4.57;;;;;;;9.86;93.98;101200.00;5055669;28;20502;-54
2022/01/02 10:12:22;;;;;;;6.78;4.45;;;;;;;9.87;93.94;101201.63;5060080;28;20403;-52
2022/01/02 10:15:06;;;;;;;8.43;4.23;;;;;;;9.95;94.03;101197.81;5057666;28;20082;-55
2022/01/02 10:17:51;;;;;;;9.82;4.22;;;;;;;10.03;94.41;101196.63;5058108;28;20025;-51
2022/01/02 10:20:17;;;;;;;5.38;4.05;;;;;;;10.07;94.59;101206.66;5039401;28;20048;-55
2022/01/02 10:23:02;;;;;;;6.68;4.40;;;;;;;10.13;94.63;101194.19;5059181;28;20064;-53
2022/01/02 10:26:03;;;;;;;10.43;4.63;;;;;;;10.20;94.09;101178.81;5056311;28;20082;-51
2022/01/02 10:28:36;;;;;;;7.25;4.13;;;;;;;10.23;94.51;101189.06;5056584;28;20082;-51
2022/01/02 10:31:11;;;;;;;6.45;3.95;;;;;;;10.31;94.41;101191.41;5055916;28;20024;-51
2022/01/02 10:33:46;;;;;;;11.63;5.30;;;;;;;10.38;94.55;101181.38;5060612;28;20044;-54
2022/01/02 10:36:12;;;;;;;7.47;4.18;;;;;;;10.45;94.77;101182.06;5056537;28;20070;-54
2022/01/02 10:38:38;;;;;;;6.55;3.38;;;;;;;10.51;94.42;101174.94;5039890;28;20507;-55
2022/01/02 10:41:03;;;;;;;10.43;4.43;;;;;;;10.57;94.61;101171.31;5058046;28;20058;-51
2022/01/02 10:43:34;;;;;;;7.82;4.43;;;;;;;10.63;94.19;101151.63;5059016;28;20039;-53
2022/01/02 10:46:06;;;;;;;6.38;3.40;;;;;;;10.71;94.05;101169.16;5057589;28;20035;-56
2022/01/02 10:48:38;;;;;;;8.68;3.55;;;;;;;10.75;93.76;101154.22;5056223;28;20043;-55
2022/01/02 10:51:08;;;;;;;4.78;3.42;;;;;;;10.78;93.81;101153.78;5058409;28;20024;-54
2022/01/02 10:53:37;;;;;;;6.13;4.07;;;;;;;10.82;94.21;101154.94;5060227;28;20162;-56
2022/01/02 10:56:05;;;;;;;7.93;3.03;;;;;;;10.88;93.92;101148.59;5037626;28;20025;-56
2022/01/02 10:58:33;;;;;;;7.57;3.38;;;;;;;10.93;93.82;101156.72;5057270;28;20149;-55
2022/01/02 11:01:06;;;;;;;7.03;3.05;;;;;;;10.96;93.78;101150.09;5036978;28;20093;-55
2022/01/02 11:03:33;;;;;;;13.38;3.63;;;;;;;11.00;93.63;101135.97;5055253;28;20025;-55
2022/01/02 11:06:05;;;;;;;8.57;3.78;;;;;;;11.04;93.58;101133.59;5052858;28;20111;-55
2022/01/02 11:08:34;;;;;;;7.18;3.92;;;;;;;11.06;93.30;101124.25;5055056;28;20029;-54
2022/01/02 11:11:01;;;;;;;8.10;3.75;;;;;;;11.08;93.15;101121.31;5050706;28;20032;-55
2022/01/02 11:13:26;;;;;;;4.65;2.90;;;;;;;11.02;93.36;101114.25;5058061;28;20624;-51
2022/01/02 11:15:54;;;;;;;13.70;3.10;;;;;;;11.12;93.14;101106.38;5036089;28;20025;-56
2022/01/02 11:18:19;;;;;;;8.40;3.53;;;;;;;11.14;92.68;101094.38;5051403;28;20094;-55
2022/01/02 11:20:45;;;;;;;4.28;2.83;;;;;;;11.12;92.93;101093.78;5053636;28;20025;-52
2022/01/02 11:23:31;;;;;;;4.82;3.03;;;;;;;11.17;92.74;101090.38;5054367;28;20066;-52
2022/01/02 11:26:20;;;;;;;5.03;3.08;;;;;;;11.18;92.29;101082.09;5051716;28;20086;-54
2022/01/02 11:28:46;;;;;;;10.00;3.80;;;;;;;11.23;92.23;101091.28;5058580;28;20070;-53
2022/01/02 11:31:37;;;;;;;6.05;3.13;;;;;;;11.23;91.81;101086.72;5035529;28;20703;-52
2022/01/02 11:34:21;;;;;;;9.10;3.53;;;;;;;11.20;91.69;101088.03;5053999;28;20100;-53
2022/01/02 11:36:47;;;;;;;8.43;3.10;;;;;;;11.26;91.96;101080.88;5050968;28;20428;-52